sensor_id;sensor_type;location;lat;lon;timestamp;P1;durP1;ratioP1;P2;durP2;ratioP2
22480;SDS011;11407;56.964;-2.212;2022-12-18T00:00:21;6.10;;;3.17;;
22480;SDS011;11407;56.964;-2.212;2022-12-18T00:02:46;4.93;;;2.90;;
22480;SDS011;11407;56.964;-2.212;2022-12-18T00:05:12;4.23;;;2.57;;
22480;SDS011;11407;56.964;-2.212;2022-12-18T00:07:37;4.17;;;2.00;;
22480;SDS011;11407;56.964;-2.212;2022-12-18T00:10:03;3.50;;;1.80;;
22480;SDS011;11407;56.964;-2.212;2022-12-18T00:12:29;3.10;;;1.80;;
22480;SDS011;11407;56.964;-2.212;2022-12-18T00:14:54;2.97;;;1.70;;
22480;SDS011;11407;56.964;-2.212;2022-12-18T00:17:19;3.67;;;2.17;;
22480;SDS011;11407;56.964;-2.212;2022-12-18T00:19:45;3.93;;;2.23;;
22480;SDS011;11407;56.964;-2.212;2022-12-18T00:22:11;2.90;;;1.97;;
22480;SDS011;11407;56.964;-2.212;2022-12-18T00:24:36;2.60;;;1.70;;
22480;SDS011;11407;56.964;-2.212;2022-12-18T00:27:02;2.17;;;1.53;;
22480;SDS011;11407;56.964;-2.212;2022-12-18T00:29:27;3.23;;;1.80;;
22480;SDS011;11407;56.964;-2.212;2022-12-18T00:31:53;2.87;;;1.70;;
22480;SDS011;11407;56.964;-2.212;2022-12-18T00:34:18;2.60;;;1.70;;
22480;SDS011;11407;56.964;-2.212;2022-12-18T00:36:43;4.80;;;2.50;;
22480;SDS011;11407;56.964;-2.212;2022-12-18T00:39:10;3.17;;;2.10;;
22480;SDS011;11407;56.964;-2.212;2022-12-18T00:41:36;1.83;;;1.67;;
22480;SDS011;11407;56.964;-2.212;2022-12-18T00:44:20;2.63;;;1.87;;
22480;SDS011;11407;56.964;-2.212;2022-12-18T00:46:46;4.60;;;1.57;;
22480;SDS011;11407;56.964;-2.212;2022-12-18T00:49:12;2.47;;;1.57;;
22480;SDS011;11407;56.964;-2.212;2022-12-18T00:51:38;3.43;;;1.73;;
22480;SDS011;11407;56.964;-2.212;2022-12-18T00:54:03;2.67;;;1.80;;
22480;SDS011;11407;56.964;-2.212;2022-12-18T00:56:29;3.03;;;1.90;;
22480;SDS011;11407;56.964;-2.212;2022-12-18T00:58:54;2.60;;;1.90;;
22480;SDS011;11407;56.964;-2.212;2022-12-18T01:01:20;2.60;;;1.43;;
22480;SDS011;11407;56.964;-2.212;2022-12-18T01:03:45;3.90;;;1.90;;
22480;SDS011;11407;56.964;-2.212;2022-12-18T01:06:12;3.07;;;1.63;;
22480;SDS011;11407;56.964;-2.212;2022-12-18T01:08:38;3.83;;;1.70;;
22480;SDS011;11407;56.964;-2.212;2022-12-18T01:11:11;2.57;;;1.70;;
22480;SDS011;11407;56.964;-2.212;2022-12-18T01:13:39;2.40;;;1.70;;
22480;SDS011;11407;56.964;-2.212;2022-12-18T01:16:05;2.73;;;1.70;;
22480;SDS011;11407;56.964;-2.212;2022-12-18T01:18:31;4.63;;;2.10;;
22480;SDS011;11407;56.964;-2.212;2022-12-18T01:20:56;2.97;;;1.80;;
22480;SDS011;11407;56.964;-2.212;2022-12-18T01:23:21;5.80;;;2.73;;
22480;SDS011;11407;56.964;-2.212;2022-12-18T01:25:47;5.13;;;2.80;;
22480;SDS011;11407;56.964;-2.212;2022-12-18T01:28:12;4.20;;;2.13;;
22480;SDS011;11407;56.964;-2.212;2022-12-18T01:30:38;2.57;;;1.83;;
22480;SDS011;11407;56.964;-2.212;2022-12-18T01:33:04;2.23;;;1.50;;
22480;SDS011;11407;56.964;-2.212;2022-12-18T01:35:30;2.07;;;1.50;;
22480;SDS011;11407;56.964;-2.212;2022-12-18T01:37:55;1.53;;;1.20;;
22480;SDS011;11407;56.964;-2.212;2022-12-18T01:40:21;2.43;;;1.53;;
22480;SDS011;11407;56.964;-2.212;2022-12-18T01:42:53;1.40;;;1.20;;
22480;SDS011;11407;56.964;-2.212;2022-12-18T01:50:38;2.67;;;1.90;;
22480;SDS011;11407;56.964;-2.212;2022-12-18T01:53:13;3.17;;;2.10;;
22480;SDS011;11407;56.964;-2.212;2022-12-18T01:55:55;2.77;;;1.20;;
22480;SDS011;11407;56.964;-2.212;2022-12-18T01:58:24;2.13;;;1.37;;
22480;SDS011;11407;56.964;-2.212;2022-12-18T02:00:58;1.30;;;1.20;;
22480;SDS011;11407;56.964;-2.212;2022-12-18T02:03:24;2.90;;;1.70;;
22480;SDS011;11407;56.964;-2.212;2022-12-18T02:14:34;2.00;;;1.37;;
22480;SDS011;11407;56.964;-2.212;2022-12-18T02:17:33;1.90;;;1.43;;
22480;SDS011;11407;56.964;-2.212;2022-12-18T02:28:25;1.07;;;0.90;;
22480;SDS011;11407;56.964;-2.212;2022-12-18T02:30:53;2.30;;;0.90;;
22480;SDS011;11407;56.964;-2.212;2022-12-18T02:33:22;1.60;;;1.30;;
22480;SDS011;11407;56.964;-2.212;2022-12-18T02:35:50;1.63;;;1.10;;
22480;SDS011;11407;56.964;-2.212;2022-12-18T02:38:18;2.67;;;1.10;;
22480;SDS011;11407;56.964;-2.212;2022-12-18T02:40:44;1.70;;;1.00;;
22480;SDS011;11407;56.964;-2.212;2022-12-18T02:43:13;2.67;;;1.47;;
22480;SDS011;11407;56.964;-2.212;2022-12-18T02:48:48;1.20;;;0.87;;
22480;SDS011;11407;56.964;-2.212;2022-12-18T02:51:26;1.83;;;0.90;;
22480;SDS011;11407;56.964;-2.212;2022-12-18T02:53:58;2.00;;;1.10;;
22480;SDS011;11407;56.964;-2.212;2022-12-18T02:56:41;1.40;;;1.00;;
22480;SDS011;11407;56.964;-2.212;2022-12-18T02:59:15;1.47;;;1.17;;
22480;SDS011;11407;56.964;-2.212;2022-12-18T03:04:30;1.80;;;1.20;;
22480;SDS011;11407;56.964;-2.212;2022-12-18T03:07:05;1.43;;;1.10;;
22480;SDS011;11407;56.964;-2.212;2022-12-18T03:09:38;2.53;;;0.93;;
22480;SDS011;11407;56.964;-2.212;2022-12-18T03:12:18;1.53;;;0.90;;
22480;SDS011;11407;56.964;-2.212;2022-12-18T03:14:54;1.30;;;0.87;;
22480;SDS011;11407;56.964;-2.212;2022-12-18T03:17:26;1.83;;;1.07;;
22480;SDS011;11407;56.964;-2.212;2022-12-18T03:19:56;2.70;;;1.40;;
22480;SDS011;11407;56.964;-2.212;2022-12-18T03:22:23;2.50;;;1.40;;
22480;SDS011;11407;56.964;-2.212;2022-12-18T03:24:51;1.53;;;1.20;;
22480;SDS011;11407;56.964;-2.212;2022-12-18T03:27:19;1.50;;;1.00;;
22480;SDS011;11407;56.964;-2.212;2022-12-18T03:29:55;1.30;;;1.13;;
22480;SDS011;11407;56.964;-2.212;2022-12-18T03:32:33;1.73;;;1.00;;
22480;SDS011;11407;56.964;-2.212;2022-12-18T03:35:06;1.10;;;0.80;;
22480;SDS011;11407;56.964;-2.212;2022-12-18T03:37:35;1.10;;;0.80;;
22480;SDS011;11407;56.964;-2.212;2022-12-18T03:40:01;1.20;;;0.80;;
22480;SDS011;11407;56.964;-2.212;2022-12-18T03:42:28;0.93;;;0.83;;
22480;SDS011;11407;56.964;-2.212;2022-12-18T03:47:40;1.63;;;1.20;;
22480;SDS011;11407;56.964;-2.212;2022-12-18T03:50:25;2.53;;;1.00;;
22480;SDS011;11407;56.964;-2.212;2022-12-18T03:53:07;1.87;;;0.80;;
22480;SDS011;11407;56.964;-2.212;2022-12-18T03:55:49;1.73;;;1.17;;
22480;SDS011;11407;56.964;-2.212;2022-12-18T03:58:17;2.07;;;1.13;;
22480;SDS011;11407;56.964;-2.212;2022-12-18T04:00:45;1.50;;;1.03;;
22480;SDS011;11407;56.964;-2.212;2022-12-18T04:03:14;1.53;;;0.97;;
22480;SDS011;11407;56.964;-2.212;2022-12-18T04:05:43;1.50;;;1.10;;
22480;SDS011;11407;56.964;-2.212;2022-12-18T04:08:10;2.47;;;1.20;;
22480;SDS011;11407;56.964;-2.212;2022-12-18T04:10:36;1.87;;;1.13;;
22480;SDS011;11407;56.964;-2.212;2022-12-18T04:13:02;1.70;;;1.20;;
22480;SDS011;11407;56.964;-2.212;2022-12-18T04:15:27;1.97;;;1.10;;
22480;SDS011;11407;56.964;-2.212;2022-12-18T04:17:53;1.20;;;1.10;;
22480;SDS011;11407;56.964;-2.212;2022-12-18T04:20:18;1.53;;;1.17;;
22480;SDS011;11407;56.964;-2.212;2022-12-18T04:22:44;1.93;;;1.30;;
22480;SDS011;11407;56.964;-2.212;2022-12-18T04:25:09;1.60;;;1.10;;
22480;SDS011;11407;56.964;-2.212;2022-12-18T04:27:35;1.50;;;1.30;;
22480;SDS011;11407;56.964;-2.212;2022-12-18T04:30:00;1.07;;;0.90;;
22480;SDS011;11407;56.964;-2.212;2022-12-18T04:32:26;1.93;;;1.50;;
22480;SDS011;11407;56.964;-2.212;2022-12-18T04:34:51;1.97;;;1.33;;
22480;SDS011;11407;56.964;-2.212;2022-12-18T04:37:16;1.13;;;1.00;;
22480;SDS011;11407;56.964;-2.212;2022-12-18T04:39:42;2.20;;;1.10;;
22480;SDS011;11407;56.964;-2.212;2022-12-18T04:42:08;2.33;;;1.13;;
22480;SDS011;11407;56.964;-2.212;2022-12-18T04:44:33;1.33;;;1.13;;
22480;SDS011;11407;56.964;-2.212;2022-12-18T04:46:59;1.83;;;1.13;;
22480;SDS011;11407;56.964;-2.212;2022-12-18T04:49:24;1.27;;;1.10;;
22480;SDS011;11407;56.964;-2.212;2022-12-18T04:51:50;2.67;;;1.17;;
22480;SDS011;11407;56.964;-2.212;2022-12-18T04:54:16;1.60;;;1.10;;
22480;SDS011;11407;56.964;-2.212;2022-12-18T04:56:45;1.90;;;1.30;;
22480;SDS011;11407;56.964;-2.212;2022-12-18T04:59:10;1.40;;;1.10;;
22480;SDS011;11407;56.964;-2.212;2022-12-18T05:01:35;1.50;;;1.00;;
22480;SDS011;11407;56.964;-2.212;2022-12-18T05:04:01;1.40;;;1.10;;
22480;SDS011;11407;56.964;-2.212;2022-12-18T05:06:27;1.30;;;1.00;;
22480;SDS011;11407;56.964;-2.212;2022-12-18T05:08:53;2.53;;;1.10;;
22480;SDS011;11407;56.964;-2.212;2022-12-18T05:11:18;1.53;;;1.30;;
22480;SDS011;11407;56.964;-2.212;2022-12-18T05:13:44;2.07;;;1.80;;
22480;SDS011;11407;56.964;-2.212;2022-12-18T05:16:10;2.53;;;1.60;;
22480;SDS011;11407;56.964;-2.212;2022-12-18T05:18:36;2.53;;;1.70;;
22480;SDS011;11407;56.964;-2.212;2022-12-18T05:21:02;1.77;;;1.40;;
22480;SDS011;11407;56.964;-2.212;2022-12-18T05:23:28;1.97;;;1.43;;
22480;SDS011;11407;56.964;-2.212;2022-12-18T05:25:55;1.57;;;1.40;;
22480;SDS011;11407;56.964;-2.212;2022-12-18T05:28:22;1.47;;;1.20;;
22480;SDS011;11407;56.964;-2.212;2022-12-18T05:30:49;1.20;;;1.10;;
22480;SDS011;11407;56.964;-2.212;2022-12-18T05:33:20;1.70;;;1.20;;
22480;SDS011;11407;56.964;-2.212;2022-12-18T05:35:51;1.60;;;1.47;;
22480;SDS011;11407;56.964;-2.212;2022-12-18T05:38:18;2.50;;;1.60;;
22480;SDS011;11407;56.964;-2.212;2022-12-18T05:40:44;2.13;;;1.60;;
22480;SDS011;11407;56.964;-2.212;2022-12-18T05:43:09;1.90;;;1.70;;
22480;SDS011;11407;56.964;-2.212;2022-12-18T05:45:39;1.53;;;1.40;;
22480;SDS011;11407;56.964;-2.212;2022-12-18T05:48:05;3.03;;;1.73;;
22480;SDS011;11407;56.964;-2.212;2022-12-18T05:50:30;1.60;;;1.30;;
22480;SDS011;11407;56.964;-2.212;2022-12-18T05:52:58;2.20;;;1.70;;
22480;SDS011;11407;56.964;-2.212;2022-12-18T05:55:23;2.43;;;1.37;;
22480;SDS011;11407;56.964;-2.212;2022-12-18T05:57:49;2.50;;;1.60;;
22480;SDS011;11407;56.964;-2.212;2022-12-18T06:00:14;2.93;;;1.70;;
22480;SDS011;11407;56.964;-2.212;2022-12-18T06:02:40;2.40;;;1.57;;
22480;SDS011;11407;56.964;-2.212;2022-12-18T06:05:06;2.97;;;2.27;;
22480;SDS011;11407;56.964;-2.212;2022-12-18T06:07:31;1.60;;;1.33;;
22480;SDS011;11407;56.964;-2.212;2022-12-18T06:09:57;2.23;;;1.47;;
22480;SDS011;11407;56.964;-2.212;2022-12-18T06:12:22;2.03;;;1.50;;
22480;SDS011;11407;56.964;-2.212;2022-12-18T06:14:48;3.77;;;2.40;;
22480;SDS011;11407;56.964;-2.212;2022-12-18T06:17:13;2.37;;;1.67;;
22480;SDS011;11407;56.964;-2.212;2022-12-18T06:19:38;3.40;;;2.03;;
22480;SDS011;11407;56.964;-2.212;2022-12-18T06:22:04;4.03;;;1.90;;
22480;SDS011;11407;56.964;-2.212;2022-12-18T06:24:29;3.17;;;1.80;;
22480;SDS011;11407;56.964;-2.212;2022-12-18T06:26:55;3.43;;;2.20;;
22480;SDS011;11407;56.964;-2.212;2022-12-18T06:29:20;3.13;;;2.13;;
22480;SDS011;11407;56.964;-2.212;2022-12-18T06:31:46;3.23;;;2.03;;
22480;SDS011;11407;56.964;-2.212;2022-12-18T06:34:11;4.57;;;2.53;;
22480;SDS011;11407;56.964;-2.212;2022-12-18T06:36:37;4.43;;;2.47;;
22480;SDS011;11407;56.964;-2.212;2022-12-18T06:39:02;4.10;;;2.47;;
22480;SDS011;11407;56.964;-2.212;2022-12-18T06:41:27;3.73;;;2.73;;
22480;SDS011;11407;56.964;-2.212;2022-12-18T06:43:53;3.73;;;2.50;;
22480;SDS011;11407;56.964;-2.212;2022-12-18T06:46:18;3.70;;;2.20;;
22480;SDS011;11407;56.964;-2.212;2022-12-18T06:48:46;3.80;;;2.33;;
22480;SDS011;11407;56.964;-2.212;2022-12-18T06:51:15;3.70;;;2.23;;
22480;SDS011;11407;56.964;-2.212;2022-12-18T06:53:42;4.00;;;2.37;;
22480;SDS011;11407;56.964;-2.212;2022-12-18T06:56:07;3.80;;;2.70;;
22480;SDS011;11407;56.964;-2.212;2022-12-18T06:58:33;3.53;;;2.60;;
22480;SDS011;11407;56.964;-2.212;2022-12-18T07:01:00;3.40;;;2.30;;
22480;SDS011;11407;56.964;-2.212;2022-12-18T07:03:26;4.30;;;2.63;;
22480;SDS011;11407;56.964;-2.212;2022-12-18T07:05:51;3.60;;;2.60;;
22480;SDS011;11407;56.964;-2.212;2022-12-18T07:08:17;3.57;;;2.47;;
22480;SDS011;11407;56.964;-2.212;2022-12-18T07:10:43;3.77;;;2.27;;
22480;SDS011;11407;56.964;-2.212;2022-12-18T07:13:08;4.50;;;2.90;;
22480;SDS011;11407;56.964;-2.212;2022-12-18T07:15:34;6.00;;;3.00;;
22480;SDS011;11407;56.964;-2.212;2022-12-18T07:17:59;5.07;;;3.10;;
22480;SDS011;11407;56.964;-2.212;2022-12-18T07:20:25;4.80;;;3.00;;
22480;SDS011;11407;56.964;-2.212;2022-12-18T07:22:50;4.17;;;2.80;;
22480;SDS011;11407;56.964;-2.212;2022-12-18T07:25:15;5.17;;;3.40;;
22480;SDS011;11407;56.964;-2.212;2022-12-18T07:27:41;5.27;;;3.77;;
22480;SDS011;11407;56.964;-2.212;2022-12-18T07:30:06;4.47;;;3.00;;
22480;SDS011;11407;56.964;-2.212;2022-12-18T07:32:32;4.97;;;3.23;;
22480;SDS011;11407;56.964;-2.212;2022-12-18T07:34:58;6.13;;;3.60;;
22480;SDS011;11407;56.964;-2.212;2022-12-18T07:37:23;5.90;;;4.07;;
22480;SDS011;11407;56.964;-2.212;2022-12-18T07:39:49;7.17;;;3.27;;
22480;SDS011;11407;56.964;-2.212;2022-12-18T07:42:14;6.10;;;3.73;;
22480;SDS011;11407;56.964;-2.212;2022-12-18T07:44:58;5.90;;;3.67;;
22480;SDS011;11407;56.964;-2.212;2022-12-18T07:47:25;7.60;;;4.03;;
22480;SDS011;11407;56.964;-2.212;2022-12-18T07:49:50;7.00;;;4.10;;
22480;SDS011;11407;56.964;-2.212;2022-12-18T07:52:16;6.00;;;3.73;;
22480;SDS011;11407;56.964;-2.212;2022-12-18T07:54:41;5.80;;;3.70;;
22480;SDS011;11407;56.964;-2.212;2022-12-18T07:57:07;7.37;;;4.50;;
22480;SDS011;11407;56.964;-2.212;2022-12-18T07:59:33;8.43;;;3.97;;
22480;SDS011;11407;56.964;-2.212;2022-12-18T08:01:58;4.00;;;3.33;;
22480;SDS011;11407;56.964;-2.212;2022-12-18T08:04:24;6.83;;;4.43;;
22480;SDS011;11407;56.964;-2.212;2022-12-18T08:06:50;8.17;;;4.67;;
22480;SDS011;11407;56.964;-2.212;2022-12-18T08:09:15;6.63;;;4.70;;
22480;SDS011;11407;56.964;-2.212;2022-12-18T08:11:40;6.83;;;3.90;;
22480;SDS011;11407;56.964;-2.212;2022-12-18T08:14:06;5.33;;;3.67;;
22480;SDS011;11407;56.964;-2.212;2022-12-18T08:16:31;6.07;;;4.03;;
22480;SDS011;11407;56.964;-2.212;2022-12-18T08:18:57;6.43;;;4.10;;
22480;SDS011;11407;56.964;-2.212;2022-12-18T08:21:23;6.30;;;4.27;;
22480;SDS011;11407;56.964;-2.212;2022-12-18T08:23:51;6.57;;;4.50;;
22480;SDS011;11407;56.964;-2.212;2022-12-18T08:26:18;4.80;;;3.83;;
22480;SDS011;11407;56.964;-2.212;2022-12-18T08:28:44;5.27;;;3.90;;
22480;SDS011;11407;56.964;-2.212;2022-12-18T08:31:10;7.13;;;4.27;;
22480;SDS011;11407;56.964;-2.212;2022-12-18T08:33:36;8.07;;;4.70;;
22480;SDS011;11407;56.964;-2.212;2022-12-18T08:36:04;5.83;;;3.87;;
22480;SDS011;11407;56.964;-2.212;2022-12-18T08:38:31;6.20;;;4.27;;
22480;SDS011;11407;56.964;-2.212;2022-12-18T08:41:04;6.73;;;4.00;;
22480;SDS011;11407;56.964;-2.212;2022-12-18T08:43:31;6.30;;;4.20;;
22480;SDS011;11407;56.964;-2.212;2022-12-18T08:46:15;6.70;;;4.07;;
22480;SDS011;11407;56.964;-2.212;2022-12-18T08:48:43;6.87;;;4.27;;
22480;SDS011;11407;56.964;-2.212;2022-12-18T08:51:08;5.60;;;4.10;;
22480;SDS011;11407;56.964;-2.212;2022-12-18T08:53:35;8.40;;;4.50;;
22480;SDS011;11407;56.964;-2.212;2022-12-18T08:56:01;5.97;;;4.07;;
22480;SDS011;11407;56.964;-2.212;2022-12-18T08:58:27;5.43;;;3.67;;
22480;SDS011;11407;56.964;-2.212;2022-12-18T09:00:52;5.70;;;2.40;;
22480;SDS011;11407;56.964;-2.212;2022-12-18T09:03:18;6.00;;;2.40;;
22480;SDS011;11407;56.964;-2.212;2022-12-18T09:05:45;3.97;;;2.37;;
22480;SDS011;11407;56.964;-2.212;2022-12-18T09:08:11;6.83;;;2.37;;
22480;SDS011;11407;56.964;-2.212;2022-12-18T09:10:43;3.03;;;2.60;;
22480;SDS011;11407;56.964;-2.212;2022-12-18T09:13:10;4.93;;;2.80;;
22480;SDS011;11407;56.964;-2.212;2022-12-18T09:15:42;5.70;;;2.60;;
22480;SDS011;11407;56.964;-2.212;2022-12-18T09:18:10;5.67;;;2.80;;
22480;SDS011;11407;56.964;-2.212;2022-12-18T09:20:37;4.00;;;2.90;;
22480;SDS011;11407;56.964;-2.212;2022-12-18T09:23:03;5.43;;;3.60;;
22480;SDS011;11407;56.964;-2.212;2022-12-18T09:25:29;5.30;;;3.40;;
22480;SDS011;11407;56.964;-2.212;2022-12-18T09:28:17;6.53;;;3.67;;
22480;SDS011;11407;56.964;-2.212;2022-12-18T09:30:45;4.53;;;3.57;;
22480;SDS011;11407;56.964;-2.212;2022-12-18T09:33:12;4.63;;;3.60;;
22480;SDS011;11407;56.964;-2.212;2022-12-18T09:35:39;4.70;;;3.30;;
22480;SDS011;11407;56.964;-2.212;2022-12-18T09:38:06;3.97;;;2.90;;
22480;SDS011;11407;56.964;-2.212;2022-12-18T09:40:34;6.57;;;3.70;;
22480;SDS011;11407;56.964;-2.212;2022-12-18T09:43:04;6.37;;;4.03;;
22480;SDS011;11407;56.964;-2.212;2022-12-18T09:45:34;4.87;;;3.70;;
22480;SDS011;11407;56.964;-2.212;2022-12-18T09:48:09;8.63;;;4.63;;
22480;SDS011;11407;56.964;-2.212;2022-12-18T09:50:40;10.17;;;5.00;;
22480;SDS011;11407;56.964;-2.212;2022-12-18T09:53:09;8.23;;;5.23;;
22480;SDS011;11407;56.964;-2.212;2022-12-18T09:55:44;9.23;;;5.30;;
22480;SDS011;11407;56.964;-2.212;2022-12-18T10:00:55;11.30;;;6.00;;
22480;SDS011;11407;56.964;-2.212;2022-12-18T10:03:21;9.07;;;4.67;;
22480;SDS011;11407;56.964;-2.212;2022-12-18T10:14:23;9.57;;;3.87;;
22480;SDS011;11407;56.964;-2.212;2022-12-18T10:17:07;8.13;;;4.33;;
22480;SDS011;11407;56.964;-2.212;2022-12-18T10:22:18;7.83;;;3.57;;
22480;SDS011;11407;56.964;-2.212;2022-12-18T10:24:56;7.57;;;3.40;;
22480;SDS011;11407;56.964;-2.212;2022-12-18T10:27:26;5.93;;;3.63;;
22480;SDS011;11407;56.964;-2.212;2022-12-18T10:29:52;7.40;;;3.83;;
22480;SDS011;11407;56.964;-2.212;2022-12-18T10:32:22;11.27;;;4.17;;
22480;SDS011;11407;56.964;-2.212;2022-12-18T10:34:50;9.27;;;3.20;;
22480;SDS011;11407;56.964;-2.212;2022-12-18T10:37:19;8.43;;;3.03;;
22480;SDS011;11407;56.964;-2.212;2022-12-18T10:40:04;6.53;;;2.93;;
22480;SDS011;11407;56.964;-2.212;2022-12-18T10:42:40;5.63;;;3.00;;
22480;SDS011;11407;56.964;-2.212;2022-12-18T10:47:35;7.53;;;2.60;;
22480;SDS011;11407;56.964;-2.212;2022-12-18T10:50:01;7.70;;;2.67;;
22480;SDS011;11407;56.964;-2.212;2022-12-18T10:52:28;11.00;;;2.90;;
22480;SDS011;11407;56.964;-2.212;2022-12-18T10:55:01;13.73;;;2.70;;
22480;SDS011;11407;56.964;-2.212;2022-12-18T10:57:33;9.80;;;2.90;;
22480;SDS011;11407;56.964;-2.212;2022-12-18T11:02:53;5.03;;;3.13;;
22480;SDS011;11407;56.964;-2.212;2022-12-18T11:07:49;7.83;;;3.67;;
22480;SDS011;11407;56.964;-2.212;2022-12-18T11:10:19;6.47;;;3.20;;
22480;SDS011;11407;56.964;-2.212;2022-12-18T11:12:46;6.47;;;2.40;;
22480;SDS011;11407;56.964;-2.212;2022-12-18T11:15:28;4.83;;;2.60;;
22480;SDS011;11407;56.964;-2.212;2022-12-18T11:17:55;8.87;;;2.80;;
22480;SDS011;11407;56.964;-2.212;2022-12-18T11:20:41;9.27;;;2.60;;
22480;SDS011;11407;56.964;-2.212;2022-12-18T11:23:10;6.17;;;2.60;;
22480;SDS011;11407;56.964;-2.212;2022-12-18T11:25:38;6.07;;;2.00;;
22480;SDS011;11407;56.964;-2.212;2022-12-18T11:31:25;10.53;;;1.80;;
22480;SDS011;11407;56.964;-2.212;2022-12-18T11:36:33;3.30;;;1.67;;
22480;SDS011;11407;56.964;-2.212;2022-12-18T11:39:27;7.07;;;2.17;;
22480;SDS011;11407;56.964;-2.212;2022-12-18T11:41:53;12.67;;;2.60;;
22480;SDS011;11407;56.964;-2.212;2022-12-18T11:44:58;4.90;;;1.97;;
22480;SDS011;11407;56.964;-2.212;2022-12-18T11:50:23;7.27;;;1.70;;
22480;SDS011;11407;56.964;-2.212;2022-12-18T11:52:50;8.53;;;2.30;;
22480;SDS011;11407;56.964;-2.212;2022-12-18T11:55:19;8.40;;;2.07;;
22480;SDS011;11407;56.964;-2.212;2022-12-18T12:18:05;12.90;;;2.40;;
22480;SDS011;11407;56.964;-2.212;2022-12-18T12:23:36;9.37;;;1.63;;
22480;SDS011;11407;56.964;-2.212;2022-12-18T12:26:06;7.57;;;2.00;;
22480;SDS011;11407;56.964;-2.212;2022-12-18T12:31:20;8.23;;;2.30;;
22480;SDS011;11407;56.964;-2.212;2022-12-18T12:34:05;6.80;;;2.10;;
22480;SDS011;11407;56.964;-2.212;2022-12-18T12:36:49;8.03;;;2.00;;
22480;SDS011;11407;56.964;-2.212;2022-12-18T12:39:39;7.10;;;2.27;;
22480;SDS011;11407;56.964;-2.212;2022-12-18T12:42:23;5.13;;;2.17;;
22480;SDS011;11407;56.964;-2.212;2022-12-18T12:46:19;9.77;;;2.57;;
22480;SDS011;11407;56.964;-2.212;2022-12-18T12:50:58;6.63;;;2.57;;
22480;SDS011;11407;56.964;-2.212;2022-12-18T12:53:34;11.90;;;2.97;;
22480;SDS011;11407;56.964;-2.212;2022-12-18T12:56:03;8.10;;;3.40;;
22480;SDS011;11407;56.964;-2.212;2022-12-18T13:07:15;7.27;;;2.70;;
22480;SDS011;11407;56.964;-2.212;2022-12-18T13:15:30;12.67;;;3.50;;
22480;SDS011;11407;56.964;-2.212;2022-12-18T13:18:03;11.07;;;3.30;;
22480;SDS011;11407;56.964;-2.212;2022-12-18T13:20:35;12.50;;;2.93;;
22480;SDS011;11407;56.964;-2.212;2022-12-18T13:36:40;11.30;;;3.73;;
22480;SDS011;11407;56.964;-2.212;2022-12-18T13:39:09;8.70;;;3.97;;
22480;SDS011;11407;56.964;-2.212;2022-12-18T13:41:50;9.50;;;3.63;;
22480;SDS011;11407;56.964;-2.212;2022-12-18T13:44:56;13.30;;;3.93;;
22480;SDS011;11407;56.964;-2.212;2022-12-18T13:47:27;11.43;;;4.73;;
22480;SDS011;11407;56.964;-2.212;2022-12-18T13:49:54;8.40;;;3.67;;
22480;SDS011;11407;56.964;-2.212;2022-12-18T13:52:33;15.47;;;4.77;;
22480;SDS011;11407;56.964;-2.212;2022-12-18T13:55:02;10.10;;;5.00;;
22480;SDS011;11407;56.964;-2.212;2022-12-18T13:57:35;9.93;;;4.60;;
22480;SDS011;11407;56.964;-2.212;2022-12-18T14:00:40;14.40;;;6.17;;
22480;SDS011;11407;56.964;-2.212;2022-12-18T14:02:58;12.10;;;5.10;;
22480;SDS011;11407;56.964;-2.212;2022-12-18T14:08:08;12.47;;;5.00;;
22480;SDS011;11407;56.964;-2.212;2022-12-18T14:10:39;11.83;;;3.90;;
22480;SDS011;11407;56.964;-2.212;2022-12-18T14:13:13;10.33;;;4.47;;
22480;SDS011;11407;56.964;-2.212;2022-12-18T14:15:45;12.00;;;4.77;;
22480;SDS011;11407;56.964;-2.212;2022-12-18T14:20:48;10.70;;;4.33;;
22480;SDS011;11407;56.964;-2.212;2022-12-18T14:25:55;10.00;;;4.23;;
22480;SDS011;11407;56.964;-2.212;2022-12-18T14:28:20;8.67;;;3.37;;
22480;SDS011;11407;56.964;-2.212;2022-12-18T14:30:47;11.07;;;3.90;;
22480;SDS011;11407;56.964;-2.212;2022-12-18T14:33:26;7.47;;;3.53;;
22480;SDS011;11407;56.964;-2.212;2022-12-18T14:43:31;10.30;;;3.97;;
22480;SDS011;11407;56.964;-2.212;2022-12-18T14:45:58;7.03;;;3.53;;
22480;SDS011;11407;56.964;-2.212;2022-12-18T14:53:33;6.63;;;2.80;;
22480;SDS011;11407;56.964;-2.212;2022-12-18T14:56:01;9.03;;;2.57;;
22480;SDS011;11407;56.964;-2.212;2022-12-18T14:58:28;10.87;;;2.77;;
22480;SDS011;11407;56.964;-2.212;2022-12-18T15:00:54;8.47;;;2.73;;
22480;SDS011;11407;56.964;-2.212;2022-12-18T15:03:20;8.17;;;2.27;;
22480;SDS011;11407;56.964;-2.212;2022-12-18T15:05:46;8.43;;;2.73;;
22480;SDS011;11407;56.964;-2.212;2022-12-18T15:08:31;7.53;;;2.60;;
22480;SDS011;11407;56.964;-2.212;2022-12-18T15:11:00;8.77;;;2.80;;
22480;SDS011;11407;56.964;-2.212;2022-12-18T15:13:26;6.87;;;2.60;;
22480;SDS011;11407;56.964;-2.212;2022-12-18T15:15:52;9.53;;;2.50;;
22480;SDS011;11407;56.964;-2.212;2022-12-18T15:18:31;10.57;;;2.70;;
22480;SDS011;11407;56.964;-2.212;2022-12-18T15:21:06;11.77;;;2.83;;
22480;SDS011;11407;56.964;-2.212;2022-12-18T15:23:35;9.93;;;2.87;;
22480;SDS011;11407;56.964;-2.212;2022-12-18T15:26:02;8.20;;;2.93;;
22480;SDS011;11407;56.964;-2.212;2022-12-18T15:28:36;8.17;;;2.40;;
22480;SDS011;11407;56.964;-2.212;2022-12-18T15:33:42;6.93;;;2.30;;
22480;SDS011;11407;56.964;-2.212;2022-12-18T15:36:14;10.90;;;2.60;;
22480;SDS011;11407;56.964;-2.212;2022-12-18T15:38:41;9.77;;;2.63;;
22480;SDS011;11407;56.964;-2.212;2022-12-18T15:41:14;8.97;;;2.60;;
22480;SDS011;11407;56.964;-2.212;2022-12-18T15:43:41;9.90;;;2.37;;
22480;SDS011;11407;56.964;-2.212;2022-12-18T15:46:14;8.60;;;2.30;;
22480;SDS011;11407;56.964;-2.212;2022-12-18T15:48:45;10.70;;;2.47;;
22480;SDS011;11407;56.964;-2.212;2022-12-18T15:51:34;10.00;;;2.63;;
22480;SDS011;11407;56.964;-2.212;2022-12-18T15:54:02;7.60;;;2.20;;
22480;SDS011;11407;56.964;-2.212;2022-12-18T15:56:30;9.83;;;2.60;;
22480;SDS011;11407;56.964;-2.212;2022-12-18T15:59:15;9.23;;;2.00;;
22480;SDS011;11407;56.964;-2.212;2022-12-18T16:01:43;9.07;;;2.97;;
22480;SDS011;11407;56.964;-2.212;2022-12-18T16:04:11;9.63;;;2.43;;
22480;SDS011;11407;56.964;-2.212;2022-12-18T16:06:37;7.53;;;2.20;;
22480;SDS011;11407;56.964;-2.212;2022-12-18T16:09:03;10.50;;;2.63;;
22480;SDS011;11407;56.964;-2.212;2022-12-18T16:11:29;7.63;;;2.60;;
22480;SDS011;11407;56.964;-2.212;2022-12-18T16:14:12;8.53;;;2.30;;
22480;SDS011;11407;56.964;-2.212;2022-12-18T16:16:45;8.03;;;2.63;;
22480;SDS011;11407;56.964;-2.212;2022-12-18T16:19:13;10.57;;;3.80;;
22480;SDS011;11407;56.964;-2.212;2022-12-18T16:21:38;11.87;;;3.73;;
22480;SDS011;11407;56.964;-2.212;2022-12-18T16:24:04;9.73;;;2.73;;
22480;SDS011;11407;56.964;-2.212;2022-12-18T16:26:29;7.80;;;2.73;;
22480;SDS011;11407;56.964;-2.212;2022-12-18T16:28:58;13.30;;;2.60;;
22480;SDS011;11407;56.964;-2.212;2022-12-18T16:31:23;11.53;;;2.80;;
22480;SDS011;11407;56.964;-2.212;2022-12-18T16:33:49;9.67;;;3.20;;
22480;SDS011;11407;56.964;-2.212;2022-12-18T16:36:14;14.43;;;3.40;;
22480;SDS011;11407;56.964;-2.212;2022-12-18T16:38:39;9.90;;;3.00;;
22480;SDS011;11407;56.964;-2.212;2022-12-18T16:41:17;11.43;;;2.73;;
22480;SDS011;11407;56.964;-2.212;2022-12-18T16:43:56;11.77;;;2.70;;
22480;SDS011;11407;56.964;-2.212;2022-12-18T16:46:21;12.27;;;3.30;;
22480;SDS011;11407;56.964;-2.212;2022-12-18T16:48:47;15.53;;;3.13;;
22480;SDS011;11407;56.964;-2.212;2022-12-18T16:51:12;9.23;;;3.17;;
22480;SDS011;11407;56.964;-2.212;2022-12-18T16:53:38;9.90;;;2.73;;
22480;SDS011;11407;56.964;-2.212;2022-12-18T16:56:03;13.33;;;3.43;;
22480;SDS011;11407;56.964;-2.212;2022-12-18T16:58:29;13.17;;;3.80;;
22480;SDS011;11407;56.964;-2.212;2022-12-18T17:00:54;13.90;;;3.70;;
22480;SDS011;11407;56.964;-2.212;2022-12-18T17:03:19;11.47;;;3.33;;
22480;SDS011;11407;56.964;-2.212;2022-12-18T17:05:45;13.27;;;2.80;;